createdAt,value
2023-04-19T00:02:21.286Z,5.37
2023-04-19T00:04:49.270Z,5.03
2023-04-19T00:07:18.724Z,3.87
2023-04-19T00:09:45.985Z,2.83
2023-04-19T00:12:13.668Z,2.50
2023-04-19T00:14:41.016Z,6.47
2023-04-19T00:17:08.620Z,5.23
2023-04-19T00:19:36.931Z,6.27
2023-04-19T00:22:04.295Z,4.90
2023-04-19T00:24:31.544Z,2.53
2023-04-19T00:26:59.493Z,5.27
2023-04-19T00:29:26.852Z,8.77
2023-04-19T00:31:54.206Z,4.73
2023-04-19T00:34:21.856Z,4.27
2023-04-19T00:36:49.156Z,2.73
2023-04-19T00:39:16.498Z,4.57
2023-04-19T00:41:44.184Z,2.73
2023-04-19T00:44:11.402Z,1.83
2023-04-19T00:46:39.357Z,3.07
2023-04-19T00:49:07.756Z,3.37
2023-04-19T00:51:35.380Z,2.37
2023-04-19T00:54:04.874Z,2.93
2023-04-19T00:56:34.393Z,4.47
2023-04-19T01:03:59.120Z,2.73
2023-04-19T01:06:28.298Z,3.40
2023-04-19T01:08:55.889Z,4.45
2023-04-19T01:11:24.481Z,3.33
2023-04-19T01:13:52.435Z,3.67
2023-04-19T01:16:20.027Z,5.00
2023-04-19T01:18:49.833Z,2.80
2023-04-19T01:21:17.490Z,2.40
2023-04-19T01:23:45.623Z,2.93
2023-04-19T01:26:13.525Z,3.65
2023-04-19T01:28:40.837Z,3.17
2023-04-19T01:31:09.755Z,4.18
2023-04-19T01:33:38.149Z,5.40
2023-04-19T01:36:09.793Z,3.53
2023-04-19T01:38:37.058Z,3.73
2023-04-19T01:41:04.745Z,4.27
2023-04-19T01:43:31.998Z,4.33
2023-04-19T01:45:59.383Z,3.80
2023-04-19T01:48:27.084Z,3.83
2023-04-19T01:50:54.531Z,4.63
2023-04-19T01:53:22.050Z,3.57
2023-04-19T01:55:50.582Z,3.67
2023-04-19T01:58:18.049Z,4.07
2023-04-19T02:00:46.348Z,3.63
2023-04-19T02:03:14.203Z,2.87
2023-04-19T02:05:42.976Z,3.87
2023-04-19T02:08:10.345Z,4.40
2023-04-19T02:10:37.975Z,7.17
2023-04-19T02:13:05.531Z,6.93
2023-04-19T02:15:34.234Z,4.97
2023-04-19T02:18:02.271Z,4.10
2023-04-19T02:20:29.725Z,4.40
2023-04-19T02:22:57.061Z,4.90
2023-04-19T02:25:24.674Z,5.20
2023-04-19T02:27:52.321Z,4.73
2023-04-19T02:30:20.043Z,3.27
2023-04-19T02:32:51.381Z,4.70
2023-04-19T02:35:19.013Z,4.43
2023-04-19T02:37:46.186Z,3.33
2023-04-19T02:40:13.446Z,6.10
2023-04-19T02:42:41.226Z,3.70
2023-04-19T02:45:09.394Z,3.67
2023-04-19T02:47:37.079Z,3.83
2023-04-19T02:50:05.308Z,6.07
2023-04-19T02:52:33.188Z,7.40
2023-04-19T02:55:00.711Z,6.27
2023-04-19T02:57:28.356Z,6.57
2023-04-19T02:59:55.684Z,8.07
2023-04-19T03:02:23.127Z,5.30
2023-04-19T03:04:51.067Z,5.30
2023-04-19T03:07:18.508Z,5.57
2023-04-19T03:09:46.114Z,6.77
2023-04-19T03:12:13.759Z,5.80
2023-04-19T03:14:42.226Z,4.28
2023-04-19T03:17:09.721Z,8.10
2023-04-19T03:19:37.786Z,12.03
2023-04-19T03:22:05.634Z,5.27
2023-04-19T03:24:34.371Z,4.40
2023-04-19T03:27:05.215Z,6.93
2023-04-19T03:29:32.630Z,7.07
2023-04-19T03:32:00.742Z,6.23
2023-04-19T03:34:29.055Z,6.15
2023-04-19T03:36:56.544Z,7.20
2023-04-19T03:39:25.605Z,6.45
2023-04-19T03:41:54.656Z,5.10
2023-04-19T03:44:22.676Z,4.37
2023-04-19T03:46:50.138Z,7.90
2023-04-19T03:49:18.208Z,4.87
2023-04-19T03:51:47.004Z,31.90
2023-04-19T03:54:14.480Z,11.27
2023-04-19T03:56:42.500Z,8.90
2023-04-19T03:59:10.264Z,9.63
2023-04-19T04:01:42.523Z,6.30
2023-04-19T04:04:12.241Z,6.33
2023-04-19T04:06:39.764Z,8.00
2023-04-19T04:09:07.782Z,7.40
2023-04-19T04:11:35.586Z,9.55
2023-04-19T04:14:03.057Z,16.10
2023-04-19T04:16:31.775Z,8.65
2023-04-19T04:18:59.810Z,10.55
2023-04-19T04:21:27.432Z,10.40
2023-04-19T04:23:56.184Z,9.25
2023-04-19T04:26:26.109Z,7.90
2023-04-19T04:28:54.245Z,7.83
2023-04-19T04:31:21.953Z,7.27
2023-04-19T04:33:51.217Z,5.90
2023-04-19T04:36:19.318Z,8.63
2023-04-19T04:38:47.437Z,7.00
2023-04-19T04:41:15.204Z,6.03
2023-04-19T04:43:42.723Z,7.73
2023-04-19T04:46:10.173Z,5.97
2023-04-19T04:48:38.491Z,8.63
2023-04-19T04:51:06.164Z,9.47
2023-04-19T04:53:33.892Z,11.33
2023-04-19T04:56:02.840Z,7.28
2023-04-19T04:58:30.636Z,6.13
2023-04-19T05:00:58.547Z,7.83
2023-04-19T05:03:28.109Z,8.47
2023-04-19T05:05:56.988Z,7.07
2023-04-19T05:08:27.078Z,9.85
2023-04-19T05:13:22.891Z,8.30
2023-04-19T05:15:50.582Z,8.07
2023-04-19T05:18:17.959Z,6.67
2023-04-19T05:20:46.953Z,10.60
2023-04-19T05:23:14.909Z,9.40
2023-04-19T05:25:42.774Z,6.93
2023-04-19T05:28:10.792Z,7.27
2023-04-19T05:30:40.355Z,7.63
2023-04-19T05:33:07.953Z,7.47
2023-04-19T05:35:35.298Z,6.43
2023-04-19T05:38:03.590Z,5.43
2023-04-19T05:40:31.398Z,6.95
2023-04-19T05:42:59.037Z,9.23
2023-04-19T05:45:27.108Z,15.70
2023-04-19T05:47:54.783Z,9.33
2023-04-19T05:50:24.619Z,9.80
2023-04-19T05:52:52.844Z,10.38
2023-04-19T05:55:20.829Z,9.10
2023-04-19T05:57:48.265Z,7.13
2023-04-19T06:00:16.644Z,10.27
2023-04-19T06:02:45.228Z,6.43
2023-04-19T06:05:13.047Z,7.53
2023-04-19T06:07:47.176Z,10.13
2023-04-19T06:10:23.862Z,6.43
2023-04-19T06:12:51.520Z,6.15
2023-04-19T06:15:18.952Z,14.53
2023-04-19T06:17:46.947Z,9.23
2023-04-19T06:20:14.403Z,8.07
2023-04-19T06:22:46.057Z,10.03
2023-04-19T06:25:13.754Z,7.33
2023-04-19T06:27:41.224Z,12.57
2023-04-19T06:30:08.984Z,15.47
2023-04-19T06:32:36.671Z,14.80
2023-04-19T06:35:06.346Z,15.77
2023-04-19T06:37:34.252Z,15.90
2023-04-19T06:40:01.931Z,9.98
2023-04-19T06:42:29.540Z,6.30
2023-04-19T06:44:59.697Z,10.83
2023-04-19T06:47:27.953Z,5.97
2023-04-19T06:49:55.470Z,7.30
2023-04-19T06:52:23.011Z,5.17
2023-04-19T06:54:51.439Z,7.03
2023-04-19T06:57:19.237Z,8.40
2023-04-19T06:59:46.652Z,6.20
2023-04-19T07:02:14.469Z,9.90
2023-04-19T07:04:41.960Z,8.87
2023-04-19T07:07:09.533Z,4.90
2023-04-19T07:09:37.196Z,6.63
2023-04-19T07:12:04.544Z,6.93
2023-04-19T07:14:31.870Z,8.03
2023-04-19T07:16:59.779Z,5.53
2023-04-19T07:19:28.402Z,5.90
2023-04-19T07:21:55.846Z,4.82
2023-04-19T07:24:23.736Z,4.30
2023-04-19T07:26:51.294Z,4.70
2023-04-19T07:29:19.250Z,4.13
2023-04-19T07:31:46.989Z,5.45
2023-04-19T07:34:14.681Z,4.90
2023-04-19T07:36:42.582Z,5.70
2023-04-19T07:39:10.260Z,6.57
2023-04-19T07:41:37.689Z,4.17
2023-04-19T07:44:05.209Z,5.80
2023-04-19T07:46:33.140Z,3.93
2023-04-19T07:49:00.521Z,3.90
2023-04-19T07:51:27.950Z,5.13
2023-04-19T07:53:55.656Z,4.17
2023-04-19T07:56:23.186Z,3.13
2023-04-19T07:59:04.183Z,5.63
2023-04-19T08:01:35.181Z,5.70
2023-04-19T08:04:03.803Z,5.10
2023-04-19T08:06:32.690Z,4.12
2023-04-19T08:09:00.137Z,5.60
2023-04-19T08:11:27.940Z,5.63
2023-04-19T08:14:08.814Z,5.17
2023-04-19T08:19:09.679Z,5.00
2023-04-19T08:21:41.330Z,6.07
2023-04-19T08:24:09.563Z,4.70
2023-04-19T08:26:36.930Z,4.30
2023-04-19T08:29:04.272Z,5.80
2023-04-19T08:31:32.256Z,4.57
2023-04-19T08:34:00.751Z,4.37
2023-04-19T08:36:39.197Z,5.53
2023-04-19T08:39:24.534Z,4.60
2023-04-19T08:42:10.436Z,4.82
2023-04-19T08:47:30.052Z,6.03
2023-04-19T08:50:17.318Z,6.53
2023-04-19T08:52:58.596Z,5.17
2023-04-19T08:55:29.761Z,4.07
2023-04-19T08:57:58.238Z,5.25
2023-04-19T09:00:25.886Z,6.12
2023-04-19T09:02:56.972Z,4.50
2023-04-19T09:05:24.633Z,3.47
2023-04-19T09:07:52.359Z,3.33
2023-04-19T09:10:21.374Z,3.60
2023-04-19T09:13:06.810Z,4.60
2023-04-19T09:15:43.818Z,3.00
2023-04-19T09:18:11.458Z,5.97
2023-04-19T09:20:47.081Z,3.60
2023-04-19T09:23:17.093Z,4.07
2023-04-19T09:28:34.994Z,6.73
2023-04-19T09:31:33.018Z,11.93
2023-04-19T09:34:18.521Z,8.05
2023-04-19T09:36:48.913Z,6.77
2023-04-19T09:39:32.201Z,7.03
2023-04-19T09:42:00.554Z,19.77
2023-04-19T09:46:59.115Z,4.73
2023-04-19T09:49:41.548Z,7.57
2023-04-19T09:52:15.265Z,3.63
2023-04-19T09:54:44.506Z,4.60
2023-04-19T09:57:12.551Z,9.07
2023-04-19T09:59:40.051Z,11.83
2023-04-19T10:02:10.977Z,5.00
2023-04-19T10:04:57.414Z,7.60
2023-04-19T10:12:52.391Z,3.93
2023-04-19T10:15:22.828Z,3.20
2023-04-19T10:17:51.139Z,3.10
2023-04-19T10:20:27.355Z,6.40
2023-04-19T10:22:55.985Z,7.10
2023-04-19T10:25:30.067Z,3.50
2023-04-19T10:27:58.339Z,4.27
2023-04-19T10:30:29.192Z,3.13
2023-04-19T10:32:58.211Z,7.27
2023-04-19T10:35:27.728Z,7.03
2023-04-19T10:38:13.640Z,5.23
2023-04-19T10:40:57.702Z,3.40
2023-04-19T10:43:29.730Z,4.13
2023-04-19T10:46:09.475Z,11.33
2023-04-19T10:48:39.368Z,5.77
2023-04-19T10:51:19.390Z,3.47
2023-04-19T10:53:54.398Z,8.50
2023-04-19T10:56:34.435Z,3.40
2023-04-19T10:59:03.116Z,5.87
2023-04-19T11:01:38.301Z,3.77
2023-04-19T11:04:06.877Z,4.03
2023-04-19T11:09:10.314Z,3.43
2023-04-19T11:11:38.111Z,2.23
2023-04-19T11:14:09.249Z,4.00
2023-04-19T11:16:45.774Z,2.80
2023-04-19T11:19:17.940Z,4.93
2023-04-19T11:21:47.586Z,3.13
2023-04-19T11:24:21.778Z,6.33
2023-04-19T11:26:49.182Z,4.00
2023-04-19T11:29:17.364Z,4.57
2023-04-19T11:31:47.094Z,3.00
2023-04-19T11:34:15.040Z,5.90
2023-04-19T11:36:51.069Z,4.45
2023-04-19T11:39:19.252Z,5.27
2023-04-19T11:41:49.641Z,3.90
2023-04-19T11:44:20.683Z,4.30
2023-04-19T11:46:59.719Z,3.40
2023-04-19T11:49:32.488Z,2.62
2023-04-19T11:52:04.601Z,7.67
2023-04-19T11:54:34.106Z,3.57
2023-04-19T11:57:09.117Z,2.42
2023-04-19T11:59:37.191Z,3.93
2023-04-19T12:02:10.666Z,3.45
2023-04-19T12:04:39.949Z,3.23
2023-04-19T12:07:07.769Z,2.07
2023-04-19T12:09:36.725Z,4.70
2023-04-19T12:12:04.758Z,17.27
2023-04-19T12:14:32.217Z,23.37
2023-04-19T12:17:14.835Z,17.03
2023-04-19T12:19:46.403Z,14.97
2023-04-19T12:22:22.194Z,3.97
2023-04-19T12:24:53.930Z,4.00
2023-04-19T12:27:21.372Z,3.67
2023-04-19T12:29:48.731Z,3.17
2023-04-19T12:32:16.980Z,3.60
2023-04-19T12:34:44.401Z,6.57
2023-04-19T12:37:11.822Z,2.53
2023-04-19T12:39:39.596Z,2.37
2023-04-19T12:42:07.013Z,2.43
2023-04-19T12:44:34.513Z,3.17
2023-04-19T12:47:02.395Z,3.20
2023-04-19T12:49:29.738Z,3.93
2023-04-19T12:51:57.478Z,2.10
2023-04-19T12:54:25.437Z,4.93
2023-04-19T12:56:53.336Z,2.47
2023-04-19T12:59:22.261Z,6.53
2023-04-19T13:01:50.181Z,3.70
2023-04-19T13:04:18.059Z,2.30
2023-04-19T13:06:46.125Z,9.30
2023-04-19T13:09:14.826Z,3.30
2023-04-19T13:11:42.758Z,2.45
2023-04-19T13:14:10.220Z,2.93
2023-04-19T13:16:38.289Z,4.87
2023-04-19T13:19:06.200Z,3.00
2023-04-19T13:21:33.688Z,1.57
2023-04-19T13:24:01.437Z,3.33
2023-04-19T13:26:28.953Z,2.83
2023-04-19T13:28:56.791Z,3.07
2023-04-19T13:31:27.250Z,3.90
2023-04-19T13:33:55.320Z,2.50
2023-04-19T13:36:23.053Z,9.23
2023-04-19T13:38:50.739Z,3.30
2023-04-19T13:41:18.070Z,9.07
2023-04-19T13:43:45.986Z,11.00
2023-04-19T13:46:14.210Z,14.50
2023-04-19T13:48:41.541Z,11.80
2023-04-19T13:51:09.152Z,16.03
2023-04-19T13:53:36.860Z,12.80
2023-04-19T13:56:04.536Z,12.53
2023-04-19T13:58:32.015Z,4.53
2023-04-19T14:00:59.773Z,6.47
2023-04-19T14:03:27.757Z,6.90
2023-04-19T14:05:55.479Z,6.70
2023-04-19T14:08:22.913Z,3.57
2023-04-19T14:10:51.142Z,4.97
2023-04-19T14:13:18.582Z,4.00
2023-04-19T14:15:46.617Z,4.73
2023-04-19T14:18:14.323Z,5.57
2023-04-19T14:20:41.716Z,3.43
2023-04-19T14:23:09.569Z,5.37
2023-04-19T14:25:37.301Z,3.65
2023-04-19T14:28:04.792Z,5.20
2023-04-19T14:30:32.321Z,4.10
2023-04-19T14:33:00.441Z,4.63
2023-04-19T14:35:30.868Z,11.87
2023-04-19T14:37:58.348Z,6.23
2023-04-19T14:40:26.153Z,16.23
2023-04-19T14:42:53.629Z,20.23
2023-04-19T14:45:21.108Z,11.70
2023-04-19T14:47:50.068Z,10.63
2023-04-19T14:50:17.387Z,6.13
2023-04-19T14:52:44.763Z,3.87
2023-04-19T14:55:12.487Z,4.03
2023-04-19T14:57:39.844Z,4.97
2023-04-19T15:00:08.126Z,5.20
2023-04-19T15:02:36.240Z,11.10
2023-04-19T15:05:04.022Z,14.97
2023-04-19T15:07:31.538Z,8.90
2023-04-19T15:09:59.550Z,4.20
2023-04-19T15:12:26.932Z,11.57
2023-04-19T15:14:54.294Z,5.13
2023-04-19T15:17:22.023Z,9.17
2023-04-19T15:19:49.615Z,7.73
2023-04-19T15:22:17.103Z,5.73
2023-04-19T15:24:44.987Z,7.40
2023-04-19T15:27:13.080Z,6.90
2023-04-19T15:29:41.449Z,7.18
2023-04-19T15:32:09.355Z,4.47
2023-04-19T15:34:37.012Z,5.23
2023-04-19T15:37:06.620Z,3.23
2023-04-19T15:39:34.293Z,6.27
2023-04-19T15:42:02.330Z,3.87
2023-04-19T15:44:30.239Z,5.00
2023-04-19T15:46:58.046Z,6.75
2023-04-19T15:49:25.464Z,6.60
2023-04-19T15:51:52.833Z,4.77
2023-04-19T15:54:22.155Z,7.53
2023-04-19T15:56:49.483Z,9.48
2023-04-19T15:59:17.247Z,5.30
2023-04-19T16:01:45.142Z,9.13
2023-04-19T16:04:13.119Z,6.27
2023-04-19T16:06:40.851Z,9.10
2023-04-19T16:09:09.348Z,7.03
2023-04-19T16:11:37.327Z,8.57
2023-04-19T16:14:04.821Z,7.60
2023-04-19T16:16:34.432Z,4.67
2023-04-19T16:19:02.248Z,4.00
2023-04-19T16:21:29.745Z,5.00
2023-04-19T16:23:57.108Z,7.23
2023-04-19T16:26:24.858Z,19.43
2023-04-19T16:28:52.349Z,13.20
2023-04-19T16:31:19.744Z,10.47
2023-04-19T16:33:47.419Z,6.40
2023-04-19T16:36:15.996Z,6.60
2023-04-19T16:38:43.415Z,6.85
2023-04-19T16:41:11.982Z,30.77
2023-04-19T16:43:39.432Z,14.48
2023-04-19T16:46:07.582Z,9.37
2023-04-19T16:48:35.320Z,13.52
2023-04-19T16:51:02.697Z,8.73
2023-04-19T16:53:31.469Z,8.77
2023-04-19T16:56:00.556Z,10.83
2023-04-19T16:58:27.889Z,16.73
2023-04-19T17:00:57.120Z,12.47
2023-04-19T17:03:25.003Z,11.60
2023-04-19T17:05:52.404Z,13.43
2023-04-19T17:08:21.724Z,14.83
2023-04-19T17:10:49.785Z,15.53
2023-04-19T17:13:17.098Z,13.43
2023-04-19T17:15:44.609Z,9.27
2023-04-19T17:18:12.457Z,10.27
2023-04-19T17:20:39.927Z,17.87
2023-04-19T17:23:07.333Z,20.60
2023-04-19T17:25:35.113Z,25.40
2023-04-19T17:28:02.539Z,22.07
2023-04-19T17:30:29.912Z,28.23
2023-04-19T17:32:57.646Z,19.17
2023-04-19T17:35:26.307Z,11.40
2023-04-19T17:37:53.622Z,12.60
2023-04-19T17:40:21.577Z,8.90
2023-04-19T17:42:48.938Z,11.00
2023-04-19T17:45:16.657Z,13.27
2023-04-19T17:47:44.592Z,11.23
2023-04-19T17:50:13.717Z,9.73
2023-04-19T17:52:42.184Z,9.90
2023-04-19T17:55:09.944Z,11.93
2023-04-19T17:57:37.390Z,12.63
2023-04-19T18:00:07.931Z,28.70
2023-04-19T18:02:36.798Z,36.07
2023-04-19T18:05:05.056Z,31.10
2023-04-19T18:07:32.419Z,27.03
2023-04-19T18:10:00.456Z,19.73
2023-04-19T18:12:28.801Z,18.23
2023-04-19T18:14:57.244Z,26.58
2023-04-19T18:17:24.691Z,27.87
2023-04-19T18:19:52.772Z,27.37
2023-04-19T18:22:20.190Z,28.47
2023-04-19T18:24:47.619Z,27.50
2023-04-19T18:27:15.993Z,24.53
2023-04-19T18:29:43.862Z,24.63
2023-04-19T18:32:11.626Z,16.87
2023-04-19T18:34:39.796Z,17.37
2023-04-19T18:37:15.836Z,17.83
2023-04-19T18:39:44.075Z,19.80
2023-04-19T18:42:11.691Z,15.90
2023-04-19T18:44:52.850Z,20.43
2023-04-19T18:47:22.453Z,27.33
2023-04-19T18:50:03.592Z,21.50
2023-04-19T18:52:34.308Z,13.63
2023-04-19T18:55:02.469Z,10.15
2023-04-19T18:57:34.245Z,13.80
2023-04-19T19:00:06.315Z,13.70
2023-04-19T19:02:36.432Z,20.13
2023-04-19T19:05:07.967Z,22.60
2023-04-19T19:07:37.980Z,19.57
2023-04-19T19:10:17.316Z,18.30
2023-04-19T19:12:48.494Z,22.23
2023-04-19T19:15:16.712Z,22.83
2023-04-19T19:17:49.240Z,20.97
2023-04-19T19:20:19.635Z,26.00
2023-04-19T19:22:47.237Z,27.85
2023-04-19T19:25:14.836Z,28.77
2023-04-19T19:28:02.233Z,21.27
2023-04-19T19:30:34.030Z,20.50
2023-04-19T19:33:03.053Z,19.87
2023-04-19T19:35:30.812Z,29.98
2023-04-19T19:37:58.527Z,15.90
2023-04-19T19:40:29.126Z,20.57
2023-04-19T19:42:58.825Z,13.00
2023-04-19T19:45:31.018Z,13.13
2023-04-19T19:48:01.815Z,15.20
2023-04-19T19:53:00.933Z,12.10
2023-04-19T19:55:29.015Z,11.83
2023-04-19T20:02:58.985Z,15.20
2023-04-19T20:08:09.782Z,17.27
2023-04-19T20:10:39.322Z,14.80
2023-04-19T20:13:06.952Z,15.30
2023-04-19T20:15:35.968Z,15.90
2023-04-19T20:18:04.478Z,19.90
2023-04-19T20:20:32.141Z,19.17
2023-04-19T20:22:59.522Z,23.23
2023-04-19T20:25:27.350Z,18.83
2023-04-19T20:27:55.245Z,25.67
2023-04-19T20:30:22.634Z,26.33
2023-04-19T20:32:50.671Z,44.73
2023-04-19T20:35:18.291Z,37.50
2023-04-19T20:37:46.754Z,38.20
2023-04-19T20:40:16.325Z,27.13
2023-04-19T20:42:45.090Z,24.40
2023-04-19T20:45:14.517Z,25.15
2023-04-19T20:47:43.010Z,19.83
2023-04-19T20:50:10.781Z,20.75
2023-04-19T20:52:38.360Z,15.77
2023-04-19T20:55:06.819Z,15.33
2023-04-19T20:57:34.101Z,18.70
2023-04-19T21:00:01.523Z,16.60
2023-04-19T21:02:31.241Z,18.90
2023-04-19T21:04:58.587Z,24.70
2023-04-19T21:07:26.001Z,17.20
2023-04-19T21:09:53.697Z,20.10
2023-04-19T21:12:21.361Z,16.80
2023-04-19T21:14:51.020Z,20.53
2023-04-19T21:17:18.944Z,38.40
2023-04-19T21:19:46.290Z,36.77
2023-04-19T21:22:13.685Z,28.17
2023-04-19T21:24:41.388Z,33.33
2023-04-19T21:27:08.792Z,29.73
2023-04-19T21:29:36.247Z,30.40
2023-04-19T21:32:03.958Z,27.43
2023-04-19T21:34:31.434Z,36.33
2023-04-19T21:36:58.741Z,31.10
2023-04-19T21:39:26.389Z,25.60
2023-04-19T21:41:53.673Z,22.23
2023-04-19T21:44:20.945Z,18.17
2023-04-19T21:46:48.686Z,19.13
2023-04-19T21:49:16.248Z,17.93
2023-04-19T21:51:43.795Z,14.97
2023-04-19T21:54:15.786Z,18.03
2023-04-19T21:56:47.724Z,17.80
2023-04-19T21:59:15.703Z,17.40
2023-04-19T22:01:43.355Z,19.40
2023-04-19T22:04:12.296Z,15.40
2023-04-19T22:06:40.647Z,20.05
2023-04-19T22:09:07.977Z,20.08
2023-04-19T22:11:35.703Z,19.93
2023-04-19T22:14:03.184Z,18.43
2023-04-19T22:16:32.930Z,17.03
2023-04-19T22:19:01.704Z,17.90
2023-04-19T22:21:29.048Z,19.37
2023-04-19T22:23:56.458Z,27.17
2023-04-19T22:26:26.188Z,18.50
2023-04-19T22:28:54.057Z,19.53
2023-04-19T22:31:21.634Z,32.03
2023-04-19T22:33:49.227Z,26.93
2023-04-19T22:36:16.857Z,19.40
2023-04-19T22:38:44.248Z,13.50
2023-04-19T22:41:11.828Z,18.90
2023-04-19T22:43:39.275Z,14.03
2023-04-19T22:46:06.646Z,15.47
2023-04-19T22:48:34.385Z,16.17
2023-04-19T22:51:02.010Z,17.33
2023-04-19T22:53:29.446Z,18.67
2023-04-19T22:55:57.081Z,18.63
2023-04-19T22:58:25.336Z,13.07
2023-04-19T23:00:52.800Z,22.65
2023-04-19T23:03:20.608Z,20.60
2023-04-19T23:05:48.182Z,21.53
2023-04-19T23:08:15.838Z,22.83
2023-04-19T23:10:43.786Z,25.37
2023-04-19T23:13:11.281Z,26.43
2023-04-19T23:15:39.753Z,24.13
2023-04-19T23:18:07.943Z,26.37
2023-04-19T23:20:35.876Z,26.70
2023-04-19T23:23:03.593Z,22.97
2023-04-19T23:25:31.568Z,23.60
2023-04-19T23:27:58.937Z,24.10
2023-04-19T23:30:26.366Z,28.20
2023-04-19T23:32:53.998Z,71.50
2023-04-19T23:35:21.395Z,54.97
2023-04-19T23:37:48.781Z,52.00
2023-04-19T23:40:16.327Z,39.60
2023-04-19T23:42:43.634Z,28.63
2023-04-19T23:45:11.646Z,30.00
2023-04-19T23:47:39.343Z,39.10
2023-04-19T23:50:07.220Z,41.60
2023-04-19T23:52:35.769Z,40.12
2023-04-19T23:55:03.735Z,31.27
2023-04-19T23:57:34.390Z,31.50
